Aérodrome :
LOGIN :

S'inscrire | Disclaimer

   EN    FR    IT 

 










Légende :    VFR   VFR Marginal   IFR   IFR Intensif   IFR Très Intensif
Visi : 
Plafond : 
>= 8 km
>= 3000ft
5 à 8 km
1000 à 3000 ft
1500m à 5 km
500 à 1000 ft
800 à 1500m
200 à 500 ft
< 800m
< 200 ft
Symboles :   Orages  Brouillard  Fortes neiges  Fortes précipitations  Vent > 20 kt
SIGMETs :   Divers  Orages  Givrage  Turbulence  Onde Orograph.  Cendres Volcan.







- Altitude de l'aérodrome : 359 ft
- Code IATA : BVA
- Voir les cartes d'approche


LFOB - Beauvais

DERNIER METAR :
  • 280730Z AUTO 19014KT 9999 FEW005 BKN019 04/02 Q0991 TEMPO 21025G35KT 3000 SHRA BKN008 BKN013CB

METARs EXPIRÉS :
  • 280700Z AUTO 19012KT 9999 OVC018 04/01 Q0991 TEMPO 21025G35KT 3000 SHRA BKN008 BKN013CB
  • 280630Z AUTO 20012KT 9999 SCT019 BKN190 BKN220 04/01 Q0991 TEMPO 21025G35KT 3000 SHRA BKN008 BKN013CB
  • 280600Z AUTO 21013KT 9999 SCT021 BKN210 04/01 Q0991 BECMG 21015G25KT
  • 280530Z AUTO 21014KT 9999 FEW022 SCT190 OVC210 04/01 Q0992 BECMG 21015G25KT
  • 280500Z AUTO 20014KT 9999 FEW021 OVC200 04/01 Q0991 BECMG 20020G30KT OVC013
  • 280430Z AUTO 21014KT 9999 FEW021 BKN210 04/01 Q0992 BECMG 20020G30KT OVC013

TAF TAF LFOB
Valide du 28 à 06h jusqu'au 01 à 06h UTC


280500Z 2806/0106 21015G25KT 9999 BKN020
TEMPO 2808/2813 3000 SHRA BKN008 BKN013CB
PROB30
TEMPO 2808/2813 21025G35KT TSRA
TEMPO 2813/2815 29020G30KT
TEMPO 2818/0103 24025G35KT 3000 SHRA BKN008 OVC013CB
ATIS : +33 3 44 11 49 28
Pas de NOTAMs connus pour ce terrain.
1 SIGMET publié pour la FIR Paris (LFFF) :
 
Turbulence forte
LFFF SIGMET 1 VALID 280400/280800 LFPW
LFFF PARIS FIR/UIR SEV TURB FCST WI N4900 W00015 - N5000 W00015 - N5115 E00200 - N5015 E00200 SFC/FL060 STNR WKN=



MET'MAP, la Météo Aéronautique d'un coup d'oeil ! - Copyright ORBIFLY Décembre 2007 - Disclaimer

ORBIFLY MET'MAP TEAM :

Programmation & Développement : Alexandra Zaïnal
Conception & Développement : Baudouin d'Aumeries
Co-Programmation & Développement : Marc-Olivier Méhu
Soutien technique & logistique : Manuel Goepfert

Contact : metmap@orbifly.com




SOURCES & CREDITS :

   NOAA